Map

Track Data

SID SEASON NUMBER BASIN SUBBASIN NAME ISO_TIME NATURE LAT LON WMO_WIND WMO_PRES WMO_AGENCY TRACK_TYPE DIST2LAND LANDFALL IFLAG USA_AGENCY USA_ATCF_ID USA_LAT USA_LON USA_RECORD USA_STATUS USA_WIND USA_PRES USA_SSHS USA_R34_NE USA_R34_SE USA_R34_SW USA_R34_NW USA_R50_NE USA_R50_SE USA_R50_SW USA_R50_NW USA_R64_NE USA_R64_SE USA_R64_SW USA_R64_NW USA_POCI USA_ROCI USA_RMW USA_EYE TOKYO_LAT TOKYO_LON TOKYO_GRADE TOKYO_WIND TOKYO_PRES TOKYO_R50_DIR TOKYO_R50_LONG TOKYO_R50_SHORT TOKYO_R30_DIR TOKYO_R30_LONG TOKYO_R30_SHORT TOKYO_LAND CMA_LAT CMA_LON CMA_CAT CMA_WIND CMA_PRES HKO_LAT HKO_LON HKO_CAT HKO_WIND HKO_PRES NEWDELHI_LAT NEWDELHI_LON NEWDELHI_GRADE NEWDELHI_WIND NEWDELHI_PRES NEWDELHI_CI NEWDELHI_DP NEWDELHI_POCI REUNION_LAT REUNION_LON REUNION_TYPE REUNION_WIND REUNION_PRES REUNION_TNUM REUNION_CI REUNION_RMW REUNION_R34_NE REUNION_R34_SE REUNION_R34_SW REUNION_R34_NW REUNION_R50_NE REUNION_R50_SE REUNION_R50_SW REUNION_R50_NW REUNION_R64_NE REUNION_R64_SE REUNION_R64_SW REUNION_R64_NW BOM_LAT BOM_LON BOM_TYPE BOM_WIND BOM_PRES BOM_TNUM BOM_CI BOM_RMW BOM_R34_NE BOM_R34_SE BOM_R34_SW BOM_R34_NW BOM_R50_NE BOM_R50_SE BOM_R50_SW BOM_R50_NW BOM_R64_NE BOM_R64_SE BOM_R64_SW BOM_R64_NW BOM_ROCI BOM_POCI BOM_EYE BOM_POS_METHOD BOM_PRES_METHOD NADI_LAT NADI_LON NADI_CAT NADI_WIND NADI_PRES WELLINGTON_LAT WELLINGTON_LON WELLINGTON_WIND WELLINGTON_PRES DS824_LAT DS824_LON DS824_STAGE DS824_WIND DS824_PRES TD9636_LAT TD9636_LON TD9636_STAGE TD9636_WIND TD9636_PRES TD9635_LAT TD9635_LON TD9635_WIND TD9635_PRES TD9635_ROCI NEUMANN_LAT NEUMANN_LON NEUMANN_CLASS NEUMANN_WIND NEUMANN_PRES MLC_LAT MLC_LON MLC_CLASS MLC_WIND MLC_PRES USA_GUST BOM_GUST BOM_GUST_PER REUNION_GUST REUNION_GUST_PER USA_SEAHGT USA_SEARAD_NE USA_SEARAD_SE USA_SEARAD_SW USA_SEARAD_NW STORM_SPEED STORM_DIR
1887267N17123 1887 52 WP MM NOT_NAMED 1887-09-23 16:00:00 NR 16.5000 123.400 main 105 86 __________O___ -1 16.5000 123.400 4 4 264
1887267N17123 1887 52 WP MM NOT_NAMED 1887-09-23 18:00:00 NR 16.4852 123.247 main 86 69 __________P___ -1 16.4852 123.247 4 5 266
1887267N17123 1887 52 WP MM NOT_NAMED 1887-09-23 21:00:00 NR 16.4747 123.000 main 69 44 __________P___ -1 16.4747 123.000 4 5 271
1887267N17123 1887 52 WP MM NOT_NAMED 1887-09-24 00:00:00 NR 16.4946 122.708 main 44 0 __________P___ -1 16.4946 122.708 4 6 278
1887267N17123 1887 52 WP MM NOT_NAMED 1887-09-24 03:00:00 NR 16.5632 122.343 main 0 0 __________P___ -1 16.5632 122.343 4 7 282
1887267N17123 1887 52 WP MM NOT_NAMED 1887-09-24 04:00:00 NR 16.6000 122.200 main 0 0 __________O___ -1 16.6000 122.200 4 9 287
1887267N17123 1887 52 WP MM NOT_NAMED 1887-09-24 06:00:00 NR 16.6967 121.880 main 0 0 __________P___ -1 16.6967 121.880 4 11 289
1887267N17123 1887 52 WP MM NOT_NAMED 1887-09-24 09:00:00 NR 16.8920 121.329 main 0 0 __________P___ -1 16.8920 121.329 4 12 292
1887267N17123 1887 52 WP MM NOT_NAMED 1887-09-24 12:00:00 NR 17.1332 120.726 main 0 0 __________P___ -1 17.1332 120.726 4 13 294
1887267N17123 1887 52 WP MM NOT_NAMED 1887-09-24 15:00:00 NR 17.4052 120.105 main 30 30 __________P___ -1 17.4052 120.105 4 13 295
1887267N17123 1887 52 WP MM NOT_NAMED 1887-09-24 16:00:00 NR 17.5000 119.900 main 43 43 __________O___ -1 17.5000 119.900 4 12 299
1887267N17123 1887 52 WP MM NOT_NAMED 1887-09-24 18:00:00 NR 17.6972 119.558 main 75 85 __________P___ -1 17.6972 119.558 4 12 302
1887267N17123 1887 52 WP MM NOT_NAMED 1887-09-24 21:00:00 NR 18.0127 119.047 main 144 144 __________P___ -1 18.0127 119.047 4 12 302
1887267N17123 1887 52 WP MM NOT_NAMED 1887-09-25 00:00:00 NR 18.3279 118.493 main 205 205 __________P___ -1 18.3279 118.493 4 13 298
1887267N17123 1887 52 WP MM NOT_NAMED 1887-09-25 03:00:00 NR 18.6153 117.845 main 286 286 __________P___ -1 18.6153 117.845 4 14 294
1887267N17123 1887 52 WP MM NOT_NAMED 1887-09-25 04:00:00 NR 18.7000 117.600 main 310 310 __________O___ -1 18.7000 117.600 4 16 286
1887267N17123 1887 52 WP MM NOT_NAMED 1887-09-25 06:00:00 NR 18.8434 117.025 main 373 377 __________P___ -1 18.8434 117.025 4 18 282
1887267N17123 1887 52 WP MM NOT_NAMED 1887-09-25 09:00:00 NR 19.0201 116.062 main 410 354 __________P___ -1 19.0201 116.062 4 19 280
1887267N17123 1887 52 WP MM NOT_NAMED 1887-09-25 12:00:00 NR 19.1584 115.039 main 354 308 __________P___ -1 19.1584 115.039 4 19 277
1887267N17123 1887 52 WP MM NOT_NAMED 1887-09-25 15:00:00 NR 19.2680 114.024 main 308 295 __________P___ -1 19.2680 114.024 4 19 276
1887267N17123 1887 52 WP MM NOT_NAMED 1887-09-25 16:00:00 NR 19.3000 113.700 main 285 221 __________O___ -1 19.3000 113.700 4 18 276
1887267N17123 1887 52 WP MM NOT_NAMED 1887-09-25 18:00:00 NR 19.3596 113.082 main 221 127 __________P___ -1 19.3596 113.082 4 17 276
1887267N17123 1887 52 WP MM NOT_NAMED 1887-09-25 21:00:00 NR 19.4401 112.223 main 127 43 __________P___ -1 19.4401 112.223 4 16 276
1887267N17123 1887 52 WP MM NOT_NAMED 1887-09-26 00:00:00 NR 19.5123 111.422 main 43 0 __________P___ -1 19.5123 111.422 4 15 275
1887267N17123 1887 52 WP MM NOT_NAMED 1887-09-26 03:00:00 NR 19.5788 110.653 main 0 0 __________P___ -1 19.5788 110.653 4 15 275
1887267N17123 1887 52 WP MM NOT_NAMED 1887-09-26 04:00:00 NR 19.6000 110.400 main 0 __________O___ -1 19.6000 110.400 4 14 275

Digital Typhoon Data and Search

About IBTrACS Database

This database is a web-friendly format of International Best Track Archive for Climate Stewardship (IBTrACS), a global best track data archive curated by NOAA dating back to 1842.

Updated: 2021-11-26